This is the latest recevied weather packets stored in our database for station/object Ostrach. If no packets are shown the sender has not sent any weather packets the latest 10 day(s).
| Time | Temp. | Humidity | Pressure | Rain* | Wind** | Luminosity | Snow |
|---|---|---|---|---|---|---|---|
| 1777768329 | 7.22° C | 83% | 1014.2 hPa | 0 mm | - | - | - |
| 1777766530 | 7.78° C | 83% | 1014.5 hPa | 0 mm | - | - | - |
| 1777764730 | 8.33° C | 82% | 1014.5 hPa | 0 mm | - | - | - |
| 1777762930 | 8.33° C | 81% | 1014.5 hPa | 0 mm | - | - | - |
| 1777761131 | 8.89° C | 80% | 1014.8 hPa | 0 mm | - | - | - |
| 1777759330 | 9.44° C | 79% | 1014.8 hPa | 0 mm | - | - | - |
| 1777757530 | 9.44° C | 78% | 1014.7 hPa | 0 mm | - | - | - |
| 1777755729 | 10° C | 76% | 1014.7 hPa | 0 mm | - | - | - |
| 1777753930 | 11.11° C | 73% | 1014.9 hPa | 0 mm | - | - | - |
| 1777752130 | 12.22° C | 70% | 1014.9 hPa | 0 mm | - | - | - |
| 1777750335 | 13.33° C | 66% | 1014.9 hPa | 0 mm | - | - | - |
| 1777748537 | 15.56° C | 60% | 1014.7 hPa | 0 mm | - | - | - |
| 1777746730 | 18.33° C | 52% | 1014.5 hPa | 0 mm | - | - | - |
| 1777744931 | 22.22° C | 38% | 1014.4 hPa | 0 mm | - | - | - |
| 1777743130 | 23.89° C | 32% | 1014.5 hPa | 0 mm | - | - | - |
| 1777741330 | 24.44° C | 31% | 1014.7 hPa | 0 mm | - | - | - |
| 1777739530 | 24.44° C | 30% | 1015 hPa | 0 mm | - | - | - |
| 1777737733 | 24.44° C | 28% | 1015.4 hPa | 0 mm | - | - | - |
| 1777735930 | 25° C | 29% | 1015.7 hPa | 0 mm | - | - | - |
| 1777734130 | 25° C | 29% | 1016 hPa | 0 mm | - | - | - |
| 1777732330 | 25° C | 31% | 1016.5 hPa | 0 mm | - | - | - |
| 1777730530 | 25° C | 31% | 1016.8 hPa | 0 mm | - | - | - |
| 1777728731 | 24.44° C | 29% | 1017.3 hPa | 0 mm | - | - | - |
| 1777726930 | 24.44° C | 27% | 1017.7 hPa | 0 mm | - | - | - |
| 1777725131 | 23.89° C | 29% | 1017.9 hPa | 0 mm | - | - | - |
* Rain since midnight (hover to see other rain measurements)
** Current wind speed in m/s (hover to see current wind gust speed)